This is the latest recevied weather packets stored in our database for station/object EA1JAO-11. If no packets are shown the sender has not sent any weather packets the latest 10 day(s).
| Time | Temp. | Humidity | Pressure | Rain* | Wind** | Luminosity | Snow |
|---|---|---|---|---|---|---|---|
| 1777543578 | 19.44° C | 60% | 1014.7 hPa | - | - | - | - |
| 1777541778 | 20° C | 59% | 1014.3 hPa | - | - | - | - |
| 1777539979 | 21.11° C | 57% | 1013.9 hPa | - | - | - | - |
| 1777538178 | 18.89° C | 62% | 1013.9 hPa | - | - | - | - |
| 1777536378 | 18.89° C | 64% | 1013.6 hPa | - | - | - | - |
| 1777534578 | 17.22° C | 75% | 1013.3 hPa | - | - | - | - |
| 1777532779 | 16.11° C | 91% | 1013 hPa | - | - | - | - |
| 1777530978 | 14.44° C | 95% | 1012.8 hPa | - | - | - | - |
| 1777529178 | 13.33° C | 94% | 1012.6 hPa | - | - | - | - |
| 1777525578 | 12.22° C | 93% | 1012.1 hPa | - | - | - | - |
| 1777523778 | 12.78° C | 93% | 1011.8 hPa | - | - | - | - |
| 1777521978 | 12.78° C | 94% | 1011.8 hPa | - | - | - | - |
| 1777520178 | 12.22° C | 92% | 1011.5 hPa | - | - | - | - |
| 1777518378 | 12.78° C | 92% | 1011.3 hPa | - | - | - | - |
| 1777516578 | 13.33° C | 91% | 1011 hPa | - | - | - | - |
| 1777514778 | 13.89° C | 90% | 1010.9 hPa | - | - | - | - |
| 1777512978 | 14.44° C | 90% | 1010.7 hPa | - | - | - | - |
| 1777511178 | 14.44° C | 91% | 1010.5 hPa | - | - | - | - |
| 1777509378 | 13.33° C | 93% | 1010.3 hPa | - | - | - | - |
| 1777507577 | 13.33° C | 94% | 1009.9 hPa | - | - | - | - |
| 1777505777 | 13.33° C | 91% | 1009.6 hPa | - | - | - | - |
| 1777503977 | 13.33° C | 90% | 1009.5 hPa | - | - | - | - |
| 1777502176 | 13.89° C | 90% | 1009.2 hPa | - | - | - | - |
| 1777500376 | 13.89° C | 89% | 1009 hPa | - | - | - | - |
| 1777498576 | 14.44° C | 87% | 1009 hPa | - | - | - | - |
* Rain since midnight (hover to see other rain measurements)
** Current wind speed in m/s (hover to see current wind gust speed)